createdAt,value
2023-02-06T00:02:26.938Z,1.40
2023-02-06T00:04:56.257Z,1.50
2023-02-06T00:07:24.181Z,1.40
2023-02-06T00:09:52.238Z,1.50
2023-02-06T00:12:20.178Z,1.83
2023-02-06T00:14:48.067Z,1.03
2023-02-06T00:17:16.060Z,1.53
2023-02-06T00:19:44.716Z,1.23
2023-02-06T00:22:14.760Z,2.00
2023-02-06T00:24:42.723Z,1.10
2023-02-06T00:27:10.615Z,1.40
2023-02-06T00:29:38.541Z,1.53
2023-02-06T00:32:06.767Z,1.70
2023-02-06T00:34:34.683Z,1.30
2023-02-06T00:37:02.575Z,1.70
2023-02-06T00:39:31.960Z,1.40
2023-02-06T00:41:59.873Z,1.30
2023-02-06T00:44:27.885Z,1.20
2023-02-06T00:46:55.896Z,1.77
2023-02-06T00:49:23.786Z,1.73
2023-02-06T00:51:51.724Z,1.70
2023-02-06T00:54:21.056Z,1.77
2023-02-06T00:56:50.480Z,1.70
2023-02-06T00:59:18.690Z,1.50
2023-02-06T01:01:46.741Z,1.23
2023-02-06T01:04:14.667Z,1.40
2023-02-06T01:06:42.550Z,1.50
2023-02-06T01:09:10.495Z,1.50
2023-02-06T01:11:38.469Z,1.43
2023-02-06T01:14:07.937Z,1.77
2023-02-06T01:16:35.815Z,1.53
2023-02-06T01:19:03.737Z,1.80
2023-02-06T01:21:31.658Z,1.23
2023-02-06T01:23:59.550Z,1.60
2023-02-06T01:26:28.627Z,1.53
2023-02-06T01:28:56.891Z,1.30
2023-02-06T01:31:27.325Z,1.70
2023-02-06T01:33:56.525Z,1.30
2023-02-06T01:36:24.771Z,1.67
2023-02-06T01:38:52.696Z,1.60
2023-02-06T01:41:21.424Z,1.70
2023-02-06T01:44:07.692Z,1.47
2023-02-06T01:46:37.028Z,1.43
2023-02-06T01:49:07.001Z,1.60
2023-02-06T01:51:35.185Z,1.40
2023-02-06T01:54:05.458Z,1.60
2023-02-06T01:56:35.533Z,1.70
2023-02-06T01:59:05.476Z,2.33
2023-02-06T02:01:34.187Z,1.73
2023-02-06T02:04:06.632Z,1.73
2023-02-06T02:06:35.481Z,1.80
2023-02-06T02:09:04.092Z,1.77
2023-02-06T02:11:33.537Z,2.27
2023-02-06T02:14:01.956Z,1.60
2023-02-06T02:16:37.146Z,1.97
2023-02-06T02:19:38.429Z,1.73
2023-02-06T02:22:26.024Z,1.57
2023-02-06T02:25:04.304Z,1.50
2023-02-06T02:27:40.656Z,1.90
2023-02-06T02:30:32.232Z,1.77
2023-02-06T02:33:23.746Z,1.60
2023-02-06T02:35:55.180Z,1.90
2023-02-06T02:38:28.906Z,2.00
2023-02-06T02:40:59.223Z,1.80
2023-02-06T02:43:33.304Z,1.80
2023-02-06T02:46:04.320Z,1.70
2023-02-06T02:48:35.451Z,1.70
2023-02-06T02:51:05.039Z,1.93
2023-02-06T02:53:33.241Z,1.77
2023-02-06T02:56:01.185Z,1.40
2023-02-06T02:58:31.594Z,1.50
2023-02-06T03:01:02.322Z,1.83
2023-02-06T03:03:33.822Z,1.77
2023-02-06T03:06:12.064Z,1.53
2023-02-06T03:08:43.460Z,1.93
2023-02-06T03:11:13.589Z,2.00
2023-02-06T03:13:44.870Z,1.80
2023-02-06T03:16:15.723Z,1.73
2023-02-06T03:18:44.920Z,1.87
2023-02-06T03:21:16.562Z,1.70
2023-02-06T03:23:45.582Z,1.90
2023-02-06T03:26:15.589Z,2.00
2023-02-06T03:28:45.669Z,2.20
2023-02-06T03:31:15.863Z,2.00
2023-02-06T03:33:46.152Z,2.17
2023-02-06T03:36:17.356Z,1.80
2023-02-06T03:38:46.134Z,1.87
2023-02-06T03:41:15.099Z,2.00
2023-02-06T03:43:46.313Z,1.70
2023-02-06T03:46:17.720Z,2.13
2023-02-06T03:48:49.773Z,2.27
2023-02-06T03:51:21.177Z,2.10
2023-02-06T03:53:51.141Z,2.17
2023-02-06T03:56:21.453Z,2.73
2023-02-06T03:58:49.533Z,2.37
2023-02-06T04:01:17.694Z,2.67
2023-02-06T04:03:45.620Z,2.37
2023-02-06T04:06:13.562Z,2.70
2023-02-06T04:08:42.839Z,2.90
2023-02-06T04:11:10.739Z,2.83
2023-02-06T04:13:38.936Z,2.53
2023-02-06T04:16:07.001Z,2.50
2023-02-06T04:18:34.877Z,2.70
2023-02-06T04:21:06.004Z,2.57
2023-02-06T04:23:34.246Z,2.50
2023-02-06T04:26:03.584Z,2.57
2023-02-06T04:28:31.445Z,2.50
2023-02-06T04:30:59.435Z,3.00
2023-02-06T04:33:27.625Z,3.17
2023-02-06T04:35:55.573Z,2.80
2023-02-06T04:38:23.502Z,2.60
2023-02-06T04:40:51.500Z,2.90
2023-02-06T04:43:20.787Z,3.37
2023-02-06T04:45:48.776Z,3.30
2023-02-06T04:48:16.734Z,2.90
2023-02-06T04:50:44.608Z,3.20
2023-02-06T04:53:12.484Z,2.67
2023-02-06T04:55:40.409Z,3.23
2023-02-06T04:58:08.325Z,3.37
2023-02-06T05:00:38.819Z,2.63
2023-02-06T05:03:06.882Z,2.90
2023-02-06T05:05:35.129Z,3.50
2023-02-06T05:08:03.176Z,3.57
2023-02-06T05:10:31.137Z,3.90
2023-02-06T05:12:59.056Z,2.90
2023-02-06T05:15:27.025Z,3.03
2023-02-06T05:17:56.934Z,3.13
2023-02-06T05:20:24.899Z,3.40
2023-02-06T05:22:52.855Z,2.93
2023-02-06T05:25:20.809Z,3.30
2023-02-06T05:27:48.912Z,3.70
2023-02-06T05:30:16.935Z,3.90
2023-02-06T05:32:44.933Z,3.43
2023-02-06T05:35:14.266Z,3.40
2023-02-06T05:37:42.234Z,3.70
2023-02-06T05:40:12.226Z,3.90
2023-02-06T05:42:40.087Z,3.53
2023-02-06T05:45:08.607Z,3.80
2023-02-06T05:47:36.561Z,4.40
2023-02-06T05:50:04.458Z,3.50
2023-02-06T05:52:33.810Z,3.73
2023-02-06T05:55:01.681Z,3.80
2023-02-06T05:57:29.607Z,3.83
2023-02-06T05:59:57.635Z,3.67
2023-02-06T06:02:25.607Z,4.90
2023-02-06T06:04:53.543Z,3.73
2023-02-06T06:07:21.485Z,4.03
2023-02-06T06:09:50.812Z,3.80
2023-02-06T06:12:19.953Z,3.73
2023-02-06T06:14:47.981Z,4.03
2023-02-06T06:17:16.061Z,4.27
2023-02-06T06:19:44.028Z,4.13
2023-02-06T06:22:12.461Z,4.03
2023-02-06T06:24:40.331Z,4.17
2023-02-06T06:27:10.863Z,5.10
2023-02-06T06:29:38.815Z,4.53
2023-02-06T06:32:07.242Z,4.10
2023-02-06T06:34:35.169Z,4.20
2023-02-06T06:37:03.122Z,4.57
2023-02-06T06:39:31.091Z,4.53
2023-02-06T06:41:59.004Z,4.93
2023-02-06T06:44:28.332Z,4.10
2023-02-06T06:46:56.400Z,4.40
2023-02-06T06:49:24.438Z,6.37
2023-02-06T06:51:52.502Z,6.70
2023-02-06T06:54:20.651Z,6.50
2023-02-06T06:56:48.715Z,4.60
2023-02-06T06:59:16.854Z,4.33
2023-02-06T07:01:46.212Z,5.20
2023-02-06T07:04:14.454Z,4.77
2023-02-06T07:06:42.359Z,4.77
2023-02-06T07:09:10.348Z,5.07
2023-02-06T07:11:38.293Z,4.50
2023-02-06T07:14:06.325Z,5.07
2023-02-06T07:16:34.278Z,4.50
2023-02-06T07:19:03.663Z,5.10
2023-02-06T07:21:31.564Z,4.23
2023-02-06T07:23:59.593Z,5.17
2023-02-06T07:26:27.511Z,4.63
2023-02-06T07:28:55.519Z,5.00
2023-02-06T07:31:23.464Z,4.67
2023-02-06T07:33:51.414Z,4.70
2023-02-06T07:36:20.732Z,5.27
2023-02-06T07:38:49.071Z,5.20
2023-02-06T07:41:18.127Z,4.40
2023-02-06T07:43:45.999Z,4.40
2023-02-06T07:46:13.901Z,7.03
2023-02-06T07:48:42.654Z,19.10
2023-02-06T07:51:10.767Z,9.03
2023-02-06T07:53:40.075Z,5.43
2023-02-06T07:56:11.453Z,5.47
2023-02-06T07:58:39.337Z,4.47
2023-02-06T08:01:07.784Z,4.73
2023-02-06T08:03:36.010Z,5.07
2023-02-06T08:06:08.528Z,4.83
2023-02-06T08:08:36.597Z,5.10
2023-02-06T08:11:07.822Z,6.70
2023-02-06T08:13:36.101Z,5.47
2023-02-06T08:16:07.757Z,4.47
2023-02-06T08:18:35.926Z,4.63
2023-02-06T08:21:04.380Z,5.33
2023-02-06T08:23:32.575Z,5.73
2023-02-06T08:26:04.097Z,5.47
2023-02-06T08:28:35.302Z,5.03
2023-02-06T08:31:05.296Z,4.63
2023-02-06T08:33:35.190Z,5.00
2023-02-06T08:36:03.200Z,5.20
2023-02-06T08:38:31.068Z,5.33
2023-02-06T08:40:59.429Z,5.20
2023-02-06T08:43:27.384Z,5.33
2023-02-06T08:45:57.722Z,5.77
2023-02-06T08:48:25.631Z,4.97
2023-02-06T08:51:02.145Z,5.50
2023-02-06T08:53:30.088Z,5.00
2023-02-06T08:56:01.161Z,5.30
2023-02-06T08:58:29.309Z,4.80
2023-02-06T09:01:00.130Z,5.43
2023-02-06T09:03:28.618Z,4.30
2023-02-06T09:06:09.340Z,4.30
2023-02-06T09:08:38.160Z,5.20
2023-02-06T09:11:06.906Z,9.77
2023-02-06T09:13:35.130Z,7.67
2023-02-06T09:16:04.899Z,6.60
2023-02-06T09:18:33.183Z,4.90
2023-02-06T09:21:05.607Z,5.63
2023-02-06T09:23:33.548Z,5.00
2023-02-06T09:26:01.411Z,5.10
2023-02-06T09:28:29.362Z,5.00
2023-02-06T09:30:57.474Z,4.90
2023-02-06T09:33:26.910Z,4.67
2023-02-06T09:36:02.891Z,5.03
2023-02-06T09:38:31.077Z,4.20
2023-02-06T09:41:01.239Z,4.70
2023-02-06T09:43:29.984Z,5.40
2023-02-06T09:45:59.551Z,5.10
2023-02-06T09:48:30.933Z,4.57
2023-02-06T09:51:01.667Z,5.10
2023-02-06T09:53:31.583Z,4.47
2023-02-06T09:56:02.394Z,4.80
2023-02-06T09:58:35.679Z,4.27
2023-02-06T10:01:07.583Z,4.73
2023-02-06T10:04:13.220Z,4.30
2023-02-06T10:06:46.201Z,4.23
2023-02-06T10:09:18.199Z,4.90
2023-02-06T10:11:48.824Z,4.30
2023-02-06T10:14:22.428Z,4.60
2023-02-06T10:16:54.856Z,4.67
2023-02-06T10:19:25.556Z,5.00
2023-02-06T10:21:56.721Z,4.73
2023-02-06T10:24:31.513Z,4.73
2023-02-06T10:27:00.700Z,4.60
2023-02-06T10:29:29.914Z,5.13
2023-02-06T10:32:04.543Z,4.80
2023-02-06T10:34:52.934Z,4.80
2023-02-06T10:37:33.374Z,4.87
2023-02-06T10:40:13.796Z,4.47
2023-02-06T10:42:45.545Z,4.47
2023-02-06T10:45:20.200Z,4.53
2023-02-06T10:47:51.245Z,5.03
2023-02-06T10:50:23.430Z,4.73
2023-02-06T10:52:53.511Z,4.90
2023-02-06T10:55:23.919Z,4.17
2023-02-06T10:57:55.728Z,4.23
2023-02-06T11:00:25.374Z,4.30
2023-02-06T11:03:06.810Z,4.83
2023-02-06T11:05:36.909Z,4.43
2023-02-06T11:08:11.333Z,4.80
2023-02-06T11:10:39.502Z,3.60
2023-02-06T11:13:08.499Z,4.00
2023-02-06T11:15:39.451Z,3.93
2023-02-06T11:18:09.300Z,3.70
2023-02-06T11:20:38.282Z,3.70
2023-02-06T11:23:17.939Z,3.80
2023-02-06T11:25:46.632Z,3.70
2023-02-06T11:28:15.617Z,3.57
2023-02-06T11:30:54.628Z,3.50
2023-02-06T11:33:24.350Z,4.23
2023-02-06T11:35:53.576Z,3.93
2023-02-06T11:38:24.614Z,3.73
2023-02-06T11:40:56.762Z,3.90
2023-02-06T11:43:25.165Z,4.13
2023-02-06T11:46:06.743Z,4.33
2023-02-06T11:48:36.115Z,3.53
2023-02-06T11:51:04.072Z,3.07
2023-02-06T11:53:34.219Z,3.97
2023-02-06T11:56:03.994Z,3.90
2023-02-06T11:58:32.506Z,3.83
2023-02-06T12:01:02.187Z,4.03
2023-02-06T12:03:32.294Z,3.93
2023-02-06T12:06:03.191Z,4.20
2023-02-06T12:08:38.023Z,4.13
2023-02-06T12:11:07.146Z,3.93
2023-02-06T12:13:39.013Z,4.43
2023-02-06T12:16:08.455Z,4.40
2023-02-06T12:18:37.624Z,4.37
2023-02-06T12:21:06.936Z,3.97
2023-02-06T12:23:38.870Z,4.03
2023-02-06T12:26:09.600Z,3.90
2023-02-06T12:28:40.096Z,3.87
2023-02-06T12:31:11.594Z,3.93
2023-02-06T12:33:43.570Z,3.60
2023-02-06T12:36:16.744Z,4.00
2023-02-06T12:38:51.315Z,3.70
2023-02-06T12:41:40.258Z,4.40
2023-02-06T12:44:13.536Z,3.93
2023-02-06T12:46:43.149Z,3.70
2023-02-06T12:49:16.010Z,3.83
2023-02-06T12:51:50.274Z,4.03
2023-02-06T12:54:22.904Z,3.87
2023-02-06T12:56:53.537Z,3.60
2023-02-06T12:59:35.152Z,4.47
2023-02-06T13:02:10.852Z,3.57
2023-02-06T13:04:39.207Z,4.27
2023-02-06T13:07:08.565Z,3.97
2023-02-06T13:09:41.791Z,3.50
2023-02-06T13:12:14.351Z,3.90
2023-02-06T13:14:47.002Z,4.27
2023-02-06T13:17:17.489Z,3.97
2023-02-06T13:19:53.947Z,3.97
2023-02-06T13:22:35.911Z,3.87
2023-02-06T13:25:37.752Z,4.23
2023-02-06T13:28:21.496Z,3.83
2023-02-06T13:30:50.855Z,3.57
2023-02-06T13:33:20.405Z,3.43
2023-02-06T13:35:58.307Z,3.90
2023-02-06T13:38:28.546Z,4.30
2023-02-06T13:41:15.432Z,4.10
2023-02-06T13:43:47.570Z,4.60
2023-02-06T13:46:17.062Z,4.03
2023-02-06T13:48:57.870Z,4.27
2023-02-06T13:51:32.495Z,3.67
2023-02-06T13:54:08.268Z,3.60
2023-02-06T13:56:41.463Z,3.97
2023-02-06T13:59:15.438Z,3.70
2023-02-06T14:01:48.268Z,3.80
2023-02-06T14:04:20.050Z,4.37
2023-02-06T14:06:57.002Z,4.00
2023-02-06T14:09:40.348Z,4.17
2023-02-06T14:12:30.293Z,4.30
2023-02-06T14:15:05.945Z,5.13
2023-02-06T14:17:40.239Z,4.40
2023-02-06T14:20:14.873Z,4.77
2023-02-06T14:22:46.148Z,4.53
2023-02-06T14:25:21.479Z,4.30
2023-02-06T14:27:56.649Z,4.23
2023-02-06T14:30:30.509Z,4.17
2023-02-06T14:33:03.309Z,4.37
2023-02-06T14:35:46.454Z,4.73
2023-02-06T14:38:29.700Z,3.93
2023-02-06T14:40:59.515Z,4.73
2023-02-06T14:43:30.432Z,4.20
2023-02-06T14:46:10.659Z,4.07
2023-02-06T14:48:40.897Z,4.47
2023-02-06T14:51:10.377Z,4.57
2023-02-06T14:53:39.727Z,4.87
2023-02-06T14:56:09.405Z,4.37
2023-02-06T14:58:37.874Z,4.30
2023-02-06T15:01:22.192Z,4.20
2023-02-06T15:03:52.918Z,4.10
2023-02-06T15:06:36.706Z,4.37
2023-02-06T15:09:06.216Z,4.37
2023-02-06T15:11:34.964Z,4.40
2023-02-06T15:14:04.594Z,3.70
2023-02-06T15:16:46.410Z,4.73
2023-02-06T15:19:19.858Z,4.73
2023-02-06T15:21:48.537Z,4.43
2023-02-06T15:24:32.498Z,4.40
2023-02-06T15:27:04.948Z,4.60
2023-02-06T15:29:32.909Z,4.47
2023-02-06T15:32:05.169Z,4.40
2023-02-06T15:34:33.209Z,3.93
2023-02-06T15:37:01.221Z,4.57
2023-02-06T15:39:29.248Z,4.37
2023-02-06T15:41:57.152Z,5.80
2023-02-06T15:44:26.984Z,4.67
2023-02-06T15:46:55.541Z,5.27
2023-02-06T15:49:36.195Z,4.37
2023-02-06T15:52:04.713Z,4.17
2023-02-06T15:54:33.661Z,4.13
2023-02-06T15:57:03.917Z,4.17
2023-02-06T15:59:34.053Z,3.80
2023-02-06T16:02:03.907Z,4.43
2023-02-06T16:04:33.878Z,4.07
2023-02-06T16:07:06.439Z,4.30
2023-02-06T16:09:39.520Z,4.30
2023-02-06T16:12:07.850Z,4.27
2023-02-06T16:14:37.850Z,3.93
2023-02-06T16:17:06.982Z,4.10
2023-02-06T16:19:46.744Z,3.93
2023-02-06T16:22:23.010Z,3.83
2023-02-06T16:24:53.223Z,4.23
2023-02-06T16:27:22.438Z,4.23
2023-02-06T16:29:51.845Z,4.00
2023-02-06T16:32:22.743Z,4.17
2023-02-06T16:34:51.208Z,4.37
2023-02-06T16:37:21.459Z,4.17
2023-02-06T16:39:52.402Z,4.30
2023-02-06T16:42:24.481Z,3.83
2023-02-06T16:44:53.063Z,4.17
2023-02-06T16:47:22.563Z,3.80
2023-02-06T16:49:51.218Z,4.13
2023-02-06T16:52:21.706Z,4.63
2023-02-06T16:54:50.135Z,4.73
2023-02-06T16:57:21.117Z,4.00
2023-02-06T16:59:50.704Z,4.23
2023-02-06T17:02:20.267Z,3.97
2023-02-06T17:04:48.880Z,4.50
2023-02-06T17:07:21.266Z,4.40
2023-02-06T17:09:51.232Z,4.17
2023-02-06T17:12:20.464Z,4.27
2023-02-06T17:14:48.949Z,4.10
2023-02-06T17:17:17.948Z,3.70
2023-02-06T17:19:46.328Z,4.40
2023-02-06T17:22:14.564Z,3.87
2023-02-06T17:24:42.678Z,4.20
2023-02-06T17:27:13.216Z,4.03
2023-02-06T17:29:41.213Z,3.97
2023-02-06T17:32:09.437Z,4.63
2023-02-06T17:34:37.615Z,4.70
2023-02-06T17:37:08.214Z,4.20
2023-02-06T17:39:36.383Z,4.60
2023-02-06T17:42:04.302Z,4.27
2023-02-06T17:44:33.640Z,3.70
2023-02-06T17:47:01.558Z,3.83
2023-02-06T17:49:29.526Z,4.23
2023-02-06T17:51:57.607Z,4.03
2023-02-06T17:54:25.493Z,3.67
2023-02-06T17:56:53.450Z,4.67
2023-02-06T17:59:21.440Z,3.83
2023-02-06T18:01:50.941Z,3.10
2023-02-06T18:04:20.488Z,3.50
2023-02-06T18:06:48.701Z,3.53
2023-02-06T18:09:16.651Z,3.43
2023-02-06T18:11:44.722Z,3.53
2023-02-06T18:14:12.939Z,4.03
2023-02-06T18:16:43.145Z,3.50
2023-02-06T18:19:12.732Z,3.77
2023-02-06T18:21:40.759Z,3.77
2023-02-06T18:24:10.038Z,3.83
2023-02-06T18:26:38.031Z,3.93
2023-02-06T18:29:06.130Z,4.17
2023-02-06T18:31:34.821Z,3.87
2023-02-06T18:34:03.808Z,3.43
2023-02-06T18:36:33.162Z,3.50
2023-02-06T18:39:01.305Z,4.20
2023-02-06T18:41:46.746Z,3.77
2023-02-06T18:44:14.744Z,4.30
2023-02-06T18:46:42.728Z,4.30
2023-02-06T18:49:10.711Z,3.70
2023-02-06T18:51:40.290Z,3.57
2023-02-06T18:54:10.168Z,3.83
2023-02-06T18:56:38.539Z,4.13
2023-02-06T18:59:06.985Z,3.63
2023-02-06T19:01:35.181Z,3.90
2023-02-06T19:04:03.436Z,3.90
2023-02-06T19:06:35.587Z,3.83
2023-02-06T19:09:07.398Z,3.10
2023-02-06T19:11:39.219Z,4.10
2023-02-06T19:14:08.295Z,3.57
2023-02-06T19:16:38.597Z,3.43
2023-02-06T19:19:07.948Z,3.90
2023-02-06T19:21:36.356Z,3.53
2023-02-06T19:24:06.362Z,3.67
2023-02-06T19:26:34.458Z,3.90
2023-02-06T19:29:02.494Z,3.90
2023-02-06T19:31:32.035Z,3.17
2023-02-06T19:34:00.903Z,3.70
2023-02-06T19:36:37.530Z,3.53
2023-02-06T19:39:09.451Z,3.90
2023-02-06T19:41:38.190Z,3.67
2023-02-06T19:44:07.306Z,4.63
2023-02-06T19:46:35.580Z,4.03
2023-02-06T19:49:09.441Z,4.20
2023-02-06T19:51:46.410Z,3.70
2023-02-06T19:54:15.781Z,4.00
2023-02-06T19:56:44.505Z,4.27
2023-02-06T19:59:18.435Z,3.80
2023-02-06T20:01:46.484Z,3.57
2023-02-06T20:04:15.069Z,3.77
2023-02-06T20:06:44.191Z,3.87
2023-02-06T20:09:12.763Z,4.03
2023-02-06T20:11:42.536Z,3.60
2023-02-06T20:14:10.904Z,3.70
2023-02-06T20:16:39.865Z,4.13
2023-02-06T20:19:08.756Z,3.90
2023-02-06T20:21:39.211Z,4.93
2023-02-06T20:24:08.504Z,4.07
2023-02-06T20:26:37.464Z,4.10
2023-02-06T20:29:07.082Z,4.17
2023-02-06T20:31:35.490Z,3.87
2023-02-06T20:34:03.740Z,3.90
2023-02-06T20:36:31.719Z,4.37
2023-02-06T20:39:00.159Z,4.23
2023-02-06T20:41:31.186Z,4.10
2023-02-06T20:43:59.616Z,4.23
2023-02-06T20:46:29.886Z,4.03
2023-02-06T20:48:58.697Z,4.10
2023-02-06T20:51:27.700Z,3.77
2023-02-06T20:53:55.617Z,3.80
2023-02-06T20:56:24.373Z,4.07
2023-02-06T20:58:52.444Z,3.80
2023-02-06T21:01:22.318Z,3.97
2023-02-06T21:03:52.060Z,4.07
2023-02-06T21:06:21.040Z,4.60
2023-02-06T21:08:50.336Z,3.67
2023-02-06T21:11:18.776Z,3.93
2023-02-06T21:13:46.663Z,5.27
2023-02-06T21:16:14.715Z,4.00
2023-02-06T21:18:42.834Z,3.93
2023-02-06T21:21:12.973Z,4.50
2023-02-06T21:23:41.558Z,4.20
2023-02-06T21:26:10.079Z,4.00
2023-02-06T21:28:38.198Z,4.10
2023-02-06T21:31:07.714Z,4.33
2023-02-06T21:33:35.733Z,4.10
2023-02-06T21:36:03.984Z,4.37
2023-02-06T21:38:33.436Z,4.27
2023-02-06T21:41:04.589Z,4.07
2023-02-06T21:43:32.560Z,4.03
2023-02-06T21:46:00.699Z,4.50
2023-02-06T21:48:28.758Z,4.73
2023-02-06T21:50:57.096Z,4.10
2023-02-06T21:53:25.315Z,3.87
2023-02-06T21:55:59.224Z,4.53
2023-02-06T21:58:27.455Z,4.20
2023-02-06T22:00:56.550Z,4.00
2023-02-06T22:03:24.505Z,4.57
2023-02-06T22:05:52.425Z,4.70
2023-02-06T22:08:20.543Z,4.40
2023-02-06T22:10:48.784Z,4.70
2023-02-06T22:13:18.077Z,4.57
2023-02-06T22:15:49.807Z,4.13
2023-02-06T22:18:17.766Z,5.30
2023-02-06T22:20:45.920Z,4.70
2023-02-06T22:23:13.867Z,4.67
2023-02-06T22:25:47.373Z,4.97
2023-02-06T22:28:15.346Z,3.93
2023-02-06T22:30:44.744Z,4.60
2023-02-06T22:33:12.645Z,5.10
2023-02-06T22:35:40.875Z,4.90
2023-02-06T22:38:08.768Z,4.60
2023-02-06T22:40:36.706Z,4.80
2023-02-06T22:43:04.718Z,4.97
2023-02-06T22:45:35.569Z,4.30
2023-02-06T22:48:05.218Z,4.57
2023-02-06T22:50:33.158Z,4.50
2023-02-06T22:53:18.557Z,4.30
2023-02-06T22:56:15.545Z,4.63
2023-02-06T22:58:43.551Z,5.57
2023-02-06T23:01:11.519Z,5.37
2023-02-06T23:03:40.857Z,5.03
2023-02-06T23:06:09.824Z,5.17
2023-02-06T23:08:38.051Z,4.73
2023-02-06T23:11:06.027Z,4.67
2023-02-06T23:13:34.012Z,4.70
2023-02-06T23:16:02.028Z,5.23
2023-02-06T23:18:30.268Z,5.70
2023-02-06T23:21:01.070Z,4.90
2023-02-06T23:23:29.396Z,4.67
2023-02-06T23:25:57.729Z,4.93
2023-02-06T23:28:26.456Z,5.33
2023-02-06T23:30:54.956Z,4.67
2023-02-06T23:33:23.204Z,4.60
2023-02-06T23:35:51.132Z,4.33
2023-02-06T23:38:20.514Z,5.00
2023-02-06T23:40:48.873Z,5.50
2023-02-06T23:43:16.820Z,4.73
2023-02-06T23:45:44.722Z,5.13
2023-02-06T23:48:12.693Z,4.70
2023-02-06T23:50:40.667Z,4.47
2023-02-06T23:53:08.593Z,4.37
2023-02-06T23:55:39.820Z,4.70
2023-02-06T23:58:07.751Z,5.70
